| time (UTC) | temp F | wind direction | speed MPH | gust MPH | rain 1hr in | rain 24hr in | rain mn in | humidity % | barometer mb |
| 20260906112144 | 71 | 194 | 2.0 | 2.0 | 0.00 | 0.64 | 0.00 | 91 | 976.0 |
| 20260906110718 | 71 | 171 | 1.0 | 2.0 | 0.00 | 0.64 | 0.00 | 90 | 976.0 |
| 20260906110644 | 71 | 171 | 1.0 | 2.0 | 0.00 | 0.64 | 0.00 | 90 | 976.0 |
| 20260906105114 | 71 | 205 | 1.0 | 2.0 | 0.00 | 0.64 | 0.00 | 89 | 975.6 |
| 20260906103614 | 72 | 197 | 1.0 | 3.0 | 0.00 | 0.64 | 0.00 | 88 | 975.6 |
| 20260906102044 | 72 | 198 | 1.0 | 2.0 | 0.00 | 0.64 | 0.00 | 87 | 975.6 |
| 20260906100514 | 72 | 203 | 3.0 | 3.0 | 0.00 | 0.64 | 0.00 | 86 | 975.6 |
| 20260906095014 | 72 | 248 | 1.0 | 2.0 | 0.00 | 0.64 | 0.00 | 86 | 975.6 |
| 20260906093514 | 72 | 255 | 1.0 | 3.0 | 0.00 | 0.64 | 0.00 | 86 | 975.6 |
| 20260906093444 | 72 | 255 | 1.0 | 3.0 | 0.00 | 0.64 | 0.00 | 86 | 975.6 |
| 20260906091944 | 72 | 225 | 3.0 | 3.0 | 0.00 | 0.64 | 0.00 | 86 | 975.6 |
| 20260906090444 | 73 | 235 | 3.0 | 5.0 | 0.00 | 0.64 | 0.00 | 85 | 975.6 |
| 20260906084914 | 73 | 234 | 3.0 | 3.0 | 0.00 | 0.64 | 0.00 | 84 | 975.3 |
| 20260906083449 | 73 | 211 | 5.0 | 5.0 | 0.00 | 0.64 | 0.00 | 84 | 975.6 |
| 20260906083414 | 73 | 211 | 5.0 | 5.0 | 0.00 | 0.64 | 0.00 | 84 | 975.6 |
| 20260906081844 | 73 | 219 | 3.0 | 6.0 | 0.00 | 0.64 | 0.00 | 83 | 975.6 |
| 20260906080314 | 74 | 225 | 5.0 | 6.0 | 0.00 | 0.64 | 0.00 | 82 | 975.3 |
| 20260906074814 | 74 | 207 | 3.0 | 5.0 | 0.00 | 0.64 | 0.00 | 81 | 975.3 |
| 20260906073244 | 74 | 202 | 2.0 | 3.0 | 0.00 | 0.64 | 0.00 | 84 | 975.6 |
| 20260906071714 | 74 | 211 | 3.0 | 5.0 | 0.00 | 0.64 | 0.00 | 90 | 975.6 |
| 20260906070214 | 74 | 215 | 3.0 | 5.0 | 0.00 | 0.64 | 0.00 | 89 | 975.6 |
| 20260906064714 | 74 | 211 | 3.0 | 3.0 | 0.00 | 0.64 | 0.00 | 90 | 975.6 |
| 20260906063245 | 74 | 202 | 2.0 | 3.0 | 0.00 | 0.64 | 0.00 | 90 | 975.7 |
| 20260906063214 | 74 | 202 | 2.0 | 3.0 | 0.00 | 0.64 | 0.00 | 90 | 975.7 |
| 20260906061714 | 74 | 211 | 3.0 | 6.0 | 0.00 | 0.64 | 0.00 | 91 | 976.0 |
| 20260906060214 | 73 | 200 | 2.0 | 3.0 | 0.00 | 0.64 | 0.00 | 93 | 976.0 |
| 20260906054714 | 73 | 217 | 3.0 | 6.0 | 0.00 | 0.64 | 0.00 | 93 | 976.0 |
| 20260906053217 | 74 | 218 | 2.0 | 3.0 | 0.00 | 0.64 | 0.00 | 92 | 976.0 |
| 20260906053144 | 74 | 218 | 2.0 | 3.0 | 0.00 | 0.64 | 0.00 | 92 | 976.0 |
| 20260906051614 | 74 | 131 | 1.0 | 3.0 | 0.00 | 0.64 | 0.00 | 90 | 976.3 |
| 20260906050145 | 74 | 109 | 3.0 | 7.0 | 0.00 | 0.64 | 0.00 | 91 | 976.6 |
| 20260906050114 | 74 | 109 | 3.0 | 7.0 | 0.00 | 0.64 | 0.00 | 91 | 976.6 |
| 20260906044614 | 73 | 140 | 2.0 | 3.0 | 0.00 | 0.64 | 0.64 | 94 | 976.3 |
| 20260906044543 | 73 | 140 | 2.0 | 3.0 | 0.00 | 0.64 | 0.64 | 94 | 976.3 |
| 20260906043014 | 73 | 83 | 2.0 | 5.0 | 0.00 | 0.64 | 0.64 | 94 | 976.6 |
| 20260906041513 | 73 | 99 | 5.0 | 5.0 | 0.00 | 0.64 | 0.64 | 93 | 976.6 |
| 20260906040013 | 74 | 99 | 1.0 | 2.0 | 0.07 | 0.64 | 0.64 | 85 | 976.0 |
| 20260906034525 | 73 | 104 | 1.0 | 2.0 | 0.08 | 0.64 | 0.64 | 92 | 976.0 |
| 20260906034513 | 73 | 104 | 1.0 | 2.0 | 0.08 | 0.64 | 0.64 | 92 | 976.0 |
| 20260906033013 | 74 | 109 | 2.0 | 2.0 | 0.08 | 0.64 | 0.64 | 95 | 976.0 |
| 20260906031513 | 75 | 87 | 3.0 | 5.0 | 0.08 | 0.64 | 0.64 | 93 | 976.6 |
| 20260906030013 | 76 | 95 | 2.0 | 2.0 | 0.01 | 0.57 | 0.57 | 88 | 976.3 |
| 20260906024513 | 78 | 86 | 2.0 | 3.0 | 0.00 | 0.56 | 0.56 | 84 | 976.0 |
| 20260906022943 | 79 | 192 | 1.0 | 2.0 | 0.00 | 0.56 | 0.56 | 76 | 975.3 |
| 20260906021443 | 79 | 195 | 1.0 | 2.0 | 0.00 | 0.56 | 0.56 | 74 | 974.9 |
| 20260906015943 | 81 | 198 | 1.0 | 1.0 | 0.00 | 0.56 | 0.56 | 72 | 974.9 |
| 20260906014413 | 69 | 104 | 3.0 | 5.0 | 0.00 | 0.56 | 0.56 | 91 | 976.0 |
| 20260906012913 | 69 | 104 | 3.0 | 5.0 | 0.00 | 0.56 | 0.56 | 91 | 976.0 |
| 20260906011343 | 69 | 104 | 3.0 | 5.0 | 0.00 | 0.56 | 0.56 | 91 | 976.0 |
| 20260906005813 | 69 | 104 | 3.0 | 5.0 | 0.13 | 0.56 | 0.56 | 91 | 976.0 |
| 20260906004313 | 69 | 104 | 3.0 | 5.0 | 0.48 | 0.56 | 0.56 | 91 | 976.0 |
| 20260906002743 | 69 | 104 | 3.0 | 5.0 | 0.55 | 0.56 | 0.56 | 91 | 976.0 |
| 20260906001243 | 69 | 104 | 3.0 | 5.0 | 0.56 | 0.56 | 0.56 | 91 | 976.0 |
| 20260905235743 | 72 | 31 | 3.0 | 29.0 | 0.24 | 0.24 | 0.24 | 80 | 975.6 |
| 20260905234213 | 78 | 16 | 1.0 | 10.0 | 0.08 | 0.08 | 0.08 | 80 | 974.6 |
| 20260905232713 | 86 | 77 | 3.0 | 6.0 | 0.01 | 0.01 | 0.01 | 59 | 975.1 |
| 20260905231143 | 92 | 89 | 1.0 | 2.0 | 0.00 | 0.00 | 0.00 | 58 | 974.6 |
| 20260905225613 | 92 | 214 | 0.0 | 2.0 | 0.00 | 0.00 | 0.00 | 55 | 974.3 |
| 20260905224043 | 91 | 212 | 2.0 | 2.0 | 0.00 | 0.00 | 0.00 | 58 | 974.6 |
| 20260905222543 | 91 | 278 | 0.0 | 1.0 | 0.00 | 0.00 | 0.00 | 59 | 974.3 |
| 20260905221301 | 91 | 139 | 1.0 | 1.0 | 0.00 | 0.00 | 0.00 | 59 | 974.4 |
| 20260905221013 | 91 | 139 | 1.0 | 1.0 | 0.00 | 0.00 | 0.00 | 59 | 974.4 |
| 20260905215443 | 92 | 217 | 0.0 | 0.0 | 0.00 | 0.00 | 0.00 | 57 | 974.6 |
| 20260905213913 | 94 | 121 | 0.0 | 2.0 | 0.00 | 0.00 | 0.00 | 54 | 974.4 |
| 20260905212343 | 95 | 172 | 1.0 | 2.0 | 0.00 | 0.00 | 0.00 | 50 | 974.6 |
| 20260905210843 | 95 | 113 | 0.0 | 1.0 | 0.00 | 0.00 | 0.00 | 50 | 974.7 |
| 20260905205343 | 96 | 56 | 1.0 | 3.0 | 0.00 | 0.00 | 0.00 | 51 | 974.9 |
| 20260905203813 | 93 | 72 | 0.0 | 2.0 | 0.00 | 0.00 | 0.00 | 52 | 975.0 |
| 20260905202313 | 94 | 64 | 1.0 | 1.0 | 0.00 | 0.00 | 0.00 | 53 | 974.9 |
| 20260905200743 | 95 | 225 | 0.0 | 3.0 | 0.00 | 0.00 | 0.00 | 48 | 975.0 |
| 20260905195243 | 94 | 359 | 0.0 | 2.0 | 0.00 | 0.00 | 0.00 | 53 | 975.6 |
| 20260905193713 | 94 | 57 | 0.0 | 2.0 | 0.00 | 0.00 | 0.00 | 49 | 976.0 |
| 20260905192143 | 93 | 120 | 1.0 | 2.0 | 0.00 | 0.04 | 0.00 | 52 | 976.0 |
| 20260905190613 | 97 | 38 | 0.0 | 2.0 | 0.00 | 0.12 | 0.00 | 49 | 976.0 |
| 20260905185043 | 96 | 307 | 0.0 | 3.0 | 0.00 | 0.12 | 0.00 | 47 | 976.3 |
| 20260905183513 | 94 | 146 | 1.0 | 2.0 | 0.00 | 0.12 | 0.00 | 51 | 976.3 |
| 20260905181943 | 93 | 58 | 1.0 | 2.0 | 0.00 | 0.12 | 0.00 | 53 | 976.9 |
| 20260905180443 | 93 | 68 | 1.0 | 2.0 | 0.00 | 0.12 | 0.00 | 52 | 977.0 |
| 20260905174913 | 94 | 147 | 0.0 | 6.0 | 0.00 | 0.12 | 0.00 | 50 | 977.0 |
| 20260905173413 | 94 | 297 | 2.0 | 2.0 | 0.00 | 0.12 | 0.00 | 50 | 977.3 |
| 20260905171843 | 94 | 326 | 1.0 | 1.0 | 0.00 | 0.12 | 0.00 | 55 | 977.3 |
| 20260905170313 | 94 | 82 | 3.0 | 3.0 | 0.00 | 0.12 | 0.00 | 56 | 977.6 |
| 20260905164743 | 93 | 20 | 0.0 | 2.0 | 0.00 | 0.12 | 0.00 | 57 | 977.3 |
| 20260905163213 | 91 | 72 | 1.0 | 2.0 | 0.00 | 0.12 | 0.00 | 62 | 977.6 |
| 20260905161643 | 90 | 102 | 3.0 | 3.0 | 0.00 | 0.12 | 0.00 | 62 | 977.6 |
| 20260905160113 | 90 | 46 | 2.0 | 3.0 | 0.00 | 0.12 | 0.00 | 63 | 977.6 |
| 20260905154637 | 88 | 77 | 2.0 | 2.0 | 0.00 | 0.12 | 0.00 | 67 | 978.0 |
| 20260905154543 | 88 | 77 | 2.0 | 2.0 | 0.00 | 0.12 | 0.00 | 67 | 978.0 |
| 20260905153043 | 88 | 59 | 2.0 | 2.0 | 0.00 | 0.12 | 0.00 | 67 | 978.3 |
| 20260905151512 | 88 | 122 | 0.0 | 1.0 | 0.00 | 0.12 | 0.00 | 66 | 978.3 |
| 20260905145943 | 86 | 85 | 1.0 | 2.0 | 0.00 | 0.12 | 0.00 | 71 | 978.3 |
| 20260905144412 | 84 | 9 | 0.0 | 1.0 | 0.00 | 0.12 | 0.00 | 74 | 978.3 |
| 20260905142912 | 82 | 19 | 1.0 | 2.0 | 0.00 | 0.12 | 0.00 | 83 | 978.3 |
| 20260905141412 | 80 | 238 | 1.0 | 2.0 | 0.00 | 0.12 | 0.00 | 84 | 978.7 |
| 20260905135912 | 79 | 257 | 1.0 | 2.0 | 0.00 | 0.12 | 0.00 | 85 | 978.7 |
| 20260905134420 | 79 | 139 | 0.0 | 1.0 | 0.00 | 0.12 | 0.00 | 85 | 978.3 |
| 20260905134342 | 79 | 139 | 0.0 | 1.0 | 0.00 | 0.12 | 0.00 | 85 | 978.3 |
| 20260905132915 | 79 | 269 | 0.0 | 1.0 | 0.00 | 0.12 | 0.00 | 84 | 978.3 |
| 20260905132842 | 79 | 269 | 0.0 | 1.0 | 0.00 | 0.12 | 0.00 | 84 | 978.3 |
| 20260905131312 | 79 | 225 | 0.0 | 2.0 | 0.00 | 0.12 | 0.00 | 82 | 978.3 |
| 20260905125742 | 78 | 322 | 0.0 | 1.0 | 0.00 | 0.12 | 0.00 | 82 | 978.3 |
| 20260905124242 | 78 | 238 | 0.0 | 1.0 | 0.00 | 0.12 | 0.00 | 82 | 978.7 |
| 20260905122712 | 78 | 216 | 0.0 | 1.0 | 0.00 | 0.12 | 0.00 | 83 | 978.3 |
| 20260905121207 | 78 | 216 | 0.0 | 0.0 | 0.00 | 0.12 | 0.00 | 81 | 978.0 |
| 20260905121142 | 78 | 216 | 0.0 | 0.0 | 0.00 | 0.12 | 0.00 | 81 | 978.0 |
| 20260905115612 | 79 | 180 | 0.0 | 1.0 | 0.00 | 0.12 | 0.00 | 77 | 978.0 |
| 20260905114042 | 78 | 45 | 2.0 | 2.0 | 0.00 | 0.12 | 0.00 | 80 | 977.6 |
| 20260905112512 | 77 | 81 | 1.0 | 2.0 | 0.00 | 0.12 | 0.00 | 82 | 977.6 |